メインページ
METAR-TAF:

METAR-TAF

空港 :

パルマ・デ・マヨルカ空港

パルマ・デ・マリョルカ, スペイン

緯度: 39-33N, 経度: 002-44E, 海抜: 4m

現時点の気象観測

当レポートは33分前の11:30(UTC)に作成
の風 6kt、東/北東から南東の間で変化する
気温 21°C
湿度 73%
気圧 1019 hPa
視程10km以上
高度1700ftの雲はほとんどない
高度3000ftの雲は散在している

METAR: LEPA 161130Z 09006KT 070V130 9999 FEW017 SCT030 21/16 Q1019 NOSIG

時間: 13:03 (12:03 UTC)

予報

当レポートは1時間3分前の11:00(UTC)に作成
予報は16日の 12時(UTC)から 17日の 12時(UTC)まで有効
北東の風 7kt
視程10km以上
高度2000ftの雲は散在している
確率 30% :
16日の 12時(UTC)から 16日の 18時(UTC)まで一時的に
視程: 4000m
高度1800ftの千切れ雲あり
高度2000ftの雲はほとんどない, 塔状積雲.
にわか雨

TAF: LEPA 161100Z 1612/1712 05007KT 9999 SCT020 TX20/1612Z TN10/1706Z PROB30 TEMPO 1612/1618 4000 SHRA BKN018 FEW020TCU

4,000以上の空港の気象観測と天気予報(METAR報とTAF報)

利用可能な観測所は地図上に黄色い丸と赤い丸で示す。

丸の上にカーソルを重ねると観測所名を参照できる。

次にクリックすると気象観測と天気予報を参照できる。

マップの切り替え:黒色「×」印の緑ボタンをクリックして拡大、「-」印の緑ボタンをクリックして縮小、緑色の三角印をクリックして隣りの地図に切り替え


METAR-TAF: